Time;durP1;ratioP1;P1;durP2;ratioP2;P2;SDS_P1;SDS_P2;PMS_P1;PMS_P2;Temp;Humidity;BMP_temperature;BMP_pressure;BME280_temperature;BME280_humidity;BME280_pressure;Samples;Min_cycle;Max_cycle;Signal;HPM_P1;HPM_P2
2022/07/03 00:01:57;;;;;;;5.03;2.67;;;26.00;95.80;;;;;;5016283;28;20452;-92
2022/07/03 00:04:23;;;;;;;4.73;4.00;;;25.90;95.80;;;;;;5014254;28;20431;-90
2022/07/03 00:06:48;;;;;;;3.20;2.90;;;25.80;95.90;;;;;;5016264;28;20668;-92
2022/07/03 00:09:14;;;;;;;9.20;2.67;;;25.80;96.40;;;;;;5017661;28;20431;-90
2022/07/03 00:11:40;;;;;;;3.60;2.80;;;25.80;96.20;;;;;;4999966;28;20684;-92
2022/07/03 00:14:06;;;;;;;3.87;3.03;;;25.70;96.30;;;;;;5017564;28;20456;-91
2022/07/03 00:16:31;;;;;;;4.33;3.10;;;25.70;96.70;;;;;;5017340;28;20444;-92
2022/07/03 00:18:57;;;;;;;3.60;3.00;;;25.60;96.60;;;;;;5018193;28;20262;-90
2022/07/03 00:21:34;;;;;;;3.23;2.30;;;25.60;96.70;;;;;;5017838;28;20198;-91
2022/07/03 00:24:08;;;;;;;5.33;3.67;;;25.60;96.80;;;;;;5017590;28;20504;-92
2022/07/03 00:26:36;;;;;;;3.53;3.07;;;25.60;96.70;;;;;;4999839;28;20467;-92
2022/07/03 00:29:03;;;;;;;3.50;3.20;;;25.60;96.80;;;;;;4998858;28;20420;-92
2022/07/03 00:31:33;;;;;;;3.33;2.70;;;25.60;97.00;;;;;;5016172;28;20423;-91
2022/07/03 00:34:01;;;;;;;3.33;3.03;;;25.50;97.00;;;;;;4999359;28;20468;-90
2022/07/03 00:36:30;;;;;;;3.77;3.07;;;25.50;97.10;;;;;;5000996;28;20514;-91
2022/07/03 00:38:55;;;;;;;4.90;3.40;;;25.50;97.30;;;;;;5027411;28;20416;-91
2022/07/03 00:41:33;;;;;;;4.20;3.00;;;25.50;97.40;;;;;;5015959;28;20905;-92
2022/07/03 00:43:59;;;;;;;4.50;3.97;;;25.40;97.50;;;;;;5016356;28;20187;-92
2022/07/03 00:46:26;;;;;;;4.10;3.70;;;25.40;97.80;;;;;;4998823;28;20436;-92
2022/07/03 00:48:54;;;;;;;6.23;3.87;;;25.40;98.00;;;;;;5016282;28;20825;-92
2022/07/03 00:51:25;;;;;;;4.27;3.87;;;25.30;98.40;;;;;;5016185;28;20412;-92
2022/07/03 00:53:53;;;;;;;4.13;3.73;;;25.30;98.40;;;;;;5015762;28;20503;-91
2022/07/03 00:56:30;;;;;;;4.67;3.67;;;25.20;98.50;;;;;;5016530;28;20440;-92
2022/07/03 00:59:00;;;;;;;7.37;3.20;;;25.20;98.70;;;;;;4999199;28;20420;-92
2022/07/03 01:01:37;;;;;;;4.70;3.70;;;25.20;98.90;;;;;;4998753;28;20512;-91
2022/07/03 01:04:14;;;;;;;4.30;3.60;;;25.20;99.00;;;;;;4999500;28;20415;-92
2022/07/03 01:07:00;;;;;;;4.70;4.30;;;25.20;99.10;;;;;;5016115;28;20450;-92
2022/07/03 01:09:59;;;;;;;4.67;4.20;;;25.10;99.30;;;;;;5000337;28;20408;-92
2022/07/03 01:13:00;;;;;;;5.70;3.80;;;25.10;99.50;;;;;;4999767;28;20517;-89
2022/07/03 01:15:48;;;;;;;7.87;4.77;;;25.10;99.60;;;;;;4992515;28;20482;-91
2022/07/03 01:18:29;;;;;;;5.83;4.13;;;25.00;99.80;;;;;;5000278;28;20888;-92
2022/07/03 01:21:09;;;;;;;6.90;3.90;;;25.00;99.90;;;;;;5016999;28;21000;-91
2022/07/03 01:23:57;;;;;;;5.53;4.33;;;25.00;99.90;;;;;;4999916;28;20433;-92
2022/07/03 01:26:26;;;;;;;4.73;4.03;;;25.00;99.90;;;;;;5000899;28;20963;-92
2022/07/03 01:28:52;;;;;;;5.70;3.80;;;24.90;99.90;;;;;;5024959;28;20415;-91
2022/07/03 01:31:22;;;;;;;4.67;3.63;;;24.90;99.90;;;;;;5014641;28;20435;-92
2022/07/03 01:33:51;;;;;;;6.43;4.10;;;24.80;99.90;;;;;;5027825;28;20220;-91
2022/07/03 01:36:18;;;;;;;4.90;4.20;;;24.70;99.90;;;;;;5022743;28;20922;-92
2022/07/03 01:38:45;;;;;;;5.23;4.70;;;24.70;99.90;;;;;;5013256;28;20935;-91
2022/07/03 01:41:12;;;;;;;7.17;5.20;;;24.70;99.90;;;;;;5003802;28;20424;-92
2022/07/03 01:43:46;;;;;;;6.73;4.87;;;24.70;99.90;;;;;;5012240;28;20456;-92
2022/07/03 01:46:13;;;;;;;5.90;4.80;;;24.60;99.90;;;;;;5026495;28;20428;-92
2022/07/03 01:48:42;;;;;;;6.07;4.57;;;24.60;99.90;;;;;;5015626;28;20451;-92
2022/07/03 01:51:12;;;;;;;7.20;4.97;;;24.50;99.90;;;;;;5013923;28;20413;-92
2022/07/03 01:53:44;;;;;;;6.57;5.00;;;24.50;99.90;;;;;;5014427;28;20452;-91
2022/07/03 01:56:11;;;;;;;6.03;5.30;;;24.40;99.90;;;;;;5014495;28;20407;-92
2022/07/03 01:58:36;;;;;;;5.60;4.90;;;24.40;99.90;;;;;;5016162;28;20472;-92
2022/07/03 02:01:20;;;;;;;5.50;5.00;;;24.30;99.90;;;;;;5014138;28;20788;-91
2022/07/03 02:04:10;;;;;;;5.83;4.53;;;24.30;99.90;;;;;;5015986;28;20192;-92
2022/07/03 02:06:43;;;;;;;8.27;5.50;;;24.30;99.90;;;;;;5014591;28;20945;-92
2022/07/03 02:09:10;;;;;;;8.13;5.73;;;24.20;99.90;;;;;;5030485;28;20456;-91
2022/07/03 02:11:38;;;;;;;6.40;5.10;;;24.20;99.90;;;;;;5016024;28;20420;-92
2022/07/03 02:14:12;;;;;;;9.70;5.27;;;24.20;99.90;;;;;;5015998;28;20475;-92
2022/07/03 02:17:08;;;;;;;7.33;5.27;;;24.20;99.90;;;;;;5015982;28;20801;-92
2022/07/03 02:19:33;;;;;;;7.90;5.57;;;24.20;99.90;;;;;;5015917;28;20419;-91
2022/07/03 02:22:01;;;;;;;8.30;5.90;;;24.20;99.90;;;;;;5017958;28;20761;-92
2022/07/03 02:24:29;;;;;;;7.23;5.60;;;24.10;99.90;;;;;;5020399;28;20539;-92
2022/07/03 02:27:04;;;;;;;9.97;5.23;;;24.10;99.90;;;;;;5036267;28;20465;-92
2022/07/03 02:29:42;;;;;;;5.90;5.27;;;24.10;99.90;;;;;;5022595;28;20405;-91
2022/07/03 02:32:13;;;;;;;5.77;4.37;;;24.00;99.90;;;;;;5027899;28;20467;-92
2022/07/03 02:34:45;;;;;;;7.60;5.60;;;24.00;99.90;;;;;;5017794;28;20457;-92
2022/07/03 02:37:17;;;;;;;8.67;6.47;;;23.90;99.90;;;;;;5016791;28;20490;-92
2022/07/03 02:40:14;;;;;;;7.13;5.83;;;23.90;99.90;;;;;;5017896;28;20485;-91
2022/07/03 02:42:47;;;;;;;10.03;6.10;;;23.90;99.90;;;;;;5016704;28;20495;-92
2022/07/03 02:45:13;;;;;;;7.00;5.77;;;24.00;99.90;;;;;;5016734;28;20397;-92
2022/07/03 02:48:02;;;;;;;9.37;6.30;;;24.00;99.90;;;;;;5018996;28;20806;-92
2022/07/03 02:50:31;;;;;;;8.63;6.20;;;24.00;99.90;;;;;;5019817;28;20467;-92
2022/07/03 02:53:06;;;;;;;8.03;5.60;;;24.00;99.90;;;;;;5019667;28;20489;-92
2022/07/03 02:55:40;;;;;;;8.30;6.30;;;24.00;99.90;;;;;;5024407;28;20451;-91
2022/07/03 02:58:31;;;;;;;6.73;6.00;;;24.00;99.90;;;;;;5030027;28;20459;-92
2022/07/03 03:01:24;;;;;;;6.20;5.57;;;23.90;99.90;;;;;;5029167;28;20415;-91
2022/07/03 03:04:02;;;;;;;6.77;5.73;;;23.90;99.90;;;;;;5018075;28;20425;-92
2022/07/03 03:06:28;;;;;;;8.73;6.23;;;23.90;99.90;;;;;;5016346;28;20478;-91
2022/07/03 03:09:02;;;;;;;9.20;6.00;;;23.90;99.90;;;;;;5017675;28;20401;-91
2022/07/03 03:11:43;;;;;;;8.77;6.30;;;23.90;99.90;;;;;;5000096;28;20946;-91
2022/07/03 03:14:12;;;;;;;7.80;5.43;;;23.90;99.90;;;;;;5017690;28;20518;-92
2022/07/03 03:16:52;;;;;;;8.17;6.00;;;23.90;99.90;;;;;;5017733;28;20796;-93
2022/07/03 03:19:22;;;;;;;8.80;7.10;;;23.90;99.90;;;;;;5018301;28;20395;-92
2022/07/03 03:22:04;;;;;;;9.13;6.73;;;23.90;99.90;;;;;;5018830;28;20444;-92
2022/07/03 03:24:31;;;;;;;7.27;6.10;;;23.90;99.90;;;;;;5001180;28;20417;-92
2022/07/03 03:26:58;;;;;;;8.10;6.10;;;23.90;99.90;;;;;;5000550;28;20491;-93
2022/07/03 03:29:24;;;;;;;9.20;5.90;;;24.00;99.90;;;;;;5000540;28;20802;-93
2022/07/03 03:31:50;;;;;;;8.77;6.13;;;24.00;99.90;;;;;;5017020;28;20457;-93
2022/07/03 03:34:16;;;;;;;7.90;6.83;;;24.00;99.90;;;;;;5017758;28;20475;-91
2022/07/03 03:36:42;;;;;;;7.20;5.70;;;24.00;99.90;;;;;;5005951;28;20196;-92
2022/07/03 03:39:08;;;;;;;9.73;6.00;;;24.00;99.90;;;;;;5008968;28;20509;-92
2022/07/03 03:41:34;;;;;;;8.30;5.77;;;24.10;99.90;;;;;;4998843;28;20427;-91
2022/07/03 03:44:00;;;;;;;7.30;5.87;;;24.10;99.90;;;;;;4999919;28;20441;-94
2022/07/03 03:46:26;;;;;;;9.33;6.93;;;24.10;99.90;;;;;;5000006;28;20437;-91
2022/07/03 03:48:51;;;;;;;8.47;6.47;;;24.10;99.90;;;;;;5002063;28;20635;-90
2022/07/03 03:51:17;;;;;;;8.77;5.80;;;24.10;99.90;;;;;;5016404;28;20177;-91
2022/07/03 03:53:43;;;;;;;16.13;6.27;;;24.20;99.90;;;;;;5032552;28;20660;-93
2022/07/03 03:56:14;;;;;;;9.47;7.00;;;24.20;99.90;;;;;;5015837;28;20184;-93
2022/07/03 03:58:41;;;;;;;9.10;6.90;;;24.20;99.90;;;;;;5016275;28;20210;-93
2022/07/03 04:01:09;;;;;;;7.57;6.27;;;24.20;99.90;;;;;;5032572;28;20411;-90
2022/07/03 04:03:37;;;;;;;10.73;6.60;;;24.20;99.90;;;;;;5031672;28;20901;-92
2022/07/03 04:06:03;;;;;;;9.73;6.60;;;24.20;99.90;;;;;;5014442;28;20503;-93
2022/07/03 04:08:30;;;;;;;10.70;7.53;;;24.20;99.90;;;;;;5014914;28;20469;-90
2022/07/03 04:10:56;;;;;;;9.70;6.50;;;24.20;99.90;;;;;;5014811;28;20420;-91
2022/07/03 04:13:22;;;;;;;8.90;6.17;;;24.20;99.90;;;;;;5016852;28;21035;-90
2022/07/03 04:15:49;;;;;;;8.80;7.00;;;24.20;99.90;;;;;;5018157;28;20480;-91
2022/07/03 04:18:15;;;;;;;8.30;6.40;;;24.20;99.90;;;;;;5019045;28;20486;-90
2022/07/03 04:20:41;;;;;;;8.47;6.70;;;24.20;99.90;;;;;;5036781;28;20405;-91
2022/07/03 04:23:06;;;;;;;8.60;6.53;;;24.20;99.90;;;;;;5028404;28;20434;-92
2022/07/03 04:25:32;;;;;;;9.17;7.50;;;24.20;99.90;;;;;;5039056;28;20438;-89
2022/07/03 04:27:58;;;;;;;10.60;7.50;;;24.20;99.90;;;;;;5019976;28;20208;-90
2022/07/03 04:30:24;;;;;;;9.83;7.10;;;24.20;99.90;;;;;;5017462;28;20188;-93
2022/07/03 04:32:50;;;;;;;12.57;6.80;;;24.20;99.90;;;;;;5027919;28;20226;-91
2022/07/03 04:35:16;;;;;;;9.60;7.27;;;24.20;99.90;;;;;;5022503;28;20978;-91
2022/07/03 04:37:43;;;;;;;6.73;5.50;;;24.20;99.90;;;;;;5017659;28;20600;-93
2022/07/03 04:40:09;;;;;;;8.10;6.00;;;24.20;99.90;;;;;;5031018;28;20180;-91
2022/07/03 04:42:35;;;;;;;8.50;6.80;;;24.30;99.90;;;;;;5031225;28;20475;-92
2022/07/03 04:45:01;;;;;;;6.90;5.90;;;24.30;99.90;;;;;;5017087;28;20411;-91
2022/07/03 04:47:27;;;;;;;11.30;6.80;;;24.30;99.90;;;;;;5027132;28;20185;-92
2022/07/03 04:49:53;;;;;;;9.33;6.67;;;24.30;99.90;;;;;;5015181;28;20520;-93
2022/07/03 04:52:18;;;;;;;9.10;6.80;;;24.40;99.90;;;;;;5015101;28;20201;-91
2022/07/03 04:54:44;;;;;;;8.13;5.77;;;24.40;99.90;;;;;;5016737;28;20208;-90
2022/07/03 04:57:10;;;;;;;8.93;7.13;;;24.40;99.90;;;;;;5016307;28;20287;-92
2022/07/03 04:59:35;;;;;;;9.03;6.93;;;24.50;99.90;;;;;;4998465;28;20184;-90
2022/07/03 05:02:01;;;;;;;8.50;6.63;;;24.50;99.90;;;;;;5016224;28;20208;-90
2022/07/03 05:04:27;;;;;;;10.90;7.67;;;24.60;99.90;;;;;;5016031;28;20546;-92
2022/07/03 05:06:52;;;;;;;8.03;6.47;;;24.60;99.90;;;;;;4998500;28;20214;-92
2022/07/03 05:09:18;;;;;;;8.73;6.63;;;24.60;99.90;;;;;;5017133;28;20181;-90
2022/07/03 05:11:45;;;;;;;11.53;6.57;;;24.60;99.90;;;;;;4998481;28;20207;-91
2022/07/03 05:14:10;;;;;;;11.77;6.83;;;24.70;99.90;;;;;;5015505;28;20295;-92
2022/07/03 05:16:36;;;;;;;8.40;6.27;;;24.70;99.90;;;;;;4997520;28;20468;-90
2022/07/03 05:19:02;;;;;;;9.20;6.43;;;24.70;99.90;;;;;;4997306;28;20309;-90
2022/07/03 05:21:28;;;;;;;7.60;6.50;;;24.80;99.90;;;;;;4997139;28;20194;-91
2022/07/03 05:23:53;;;;;;;9.30;7.40;;;24.80;99.90;;;;;;4997224;28;20179;-91
2022/07/03 05:26:19;;;;;;;9.07;7.03;;;24.90;99.90;;;;;;5013658;28;20412;-91
2022/07/03 05:28:45;;;;;;;8.80;6.50;;;24.90;99.90;;;;;;5013899;28;20628;-90
2022/07/03 05:31:11;;;;;;;9.27;7.20;;;24.90;99.90;;;;;;5014796;28;20173;-94
2022/07/03 05:33:37;;;;;;;7.50;5.73;;;24.90;99.90;;;;;;4997596;28;20554;-93
2022/07/03 05:36:03;;;;;;;7.07;5.80;;;25.00;99.90;;;;;;4997632;28;20175;-90
2022/07/03 05:41:13;;;;;;;8.37;6.03;;;25.00;99.90;;;;;;5016337;28;20406;-93
2022/07/03 05:43:39;;;;;;;7.67;6.33;;;25.10;99.90;;;;;;4998724;28;20431;-90
2022/07/03 05:46:04;;;;;;;8.97;7.17;;;25.10;99.90;;;;;;5014539;28;20229;-90
2022/07/03 05:48:30;;;;;;;10.97;7.23;;;25.10;99.90;;;;;;5015818;28;20237;-90
2022/07/03 05:50:56;;;;;;;8.27;6.60;;;25.20;99.90;;;;;;5017031;28;20178;-93
2022/07/03 05:53:22;;;;;;;10.23;6.80;;;25.20;99.90;;;;;;4999911;28;20689;-91
2022/07/03 05:55:48;;;;;;;10.50;6.63;;;25.20;99.90;;;;;;4999055;28;20474;-93
2022/07/03 05:58:14;;;;;;;10.30;7.57;;;25.30;99.90;;;;;;5019341;28;20470;-91
2022/07/03 06:00:40;;;;;;;8.60;5.73;;;25.30;99.90;;;;;;5002654;28;20265;-89
2022/07/03 06:03:06;;;;;;;7.73;6.30;;;25.30;99.90;;;;;;5002004;28;20967;-92
2022/07/03 06:05:32;;;;;;;7.40;6.17;;;25.30;99.90;;;;;;5019897;28;20401;-91
2022/07/03 06:07:58;;;;;;;8.43;6.60;;;25.40;99.90;;;;;;5020619;28;20226;-93
2022/07/03 06:10:24;;;;;;;7.50;6.00;;;25.40;99.90;;;;;;5013068;28;20455;-92
2022/07/03 06:12:50;;;;;;;7.87;6.70;;;25.40;99.90;;;;;;5019327;28;20451;-89
2022/07/03 06:15:16;;;;;;;8.70;7.20;;;25.50;99.90;;;;;;5000425;28;20820;-91
2022/07/03 06:17:43;;;;;;;9.30;7.57;;;25.50;99.90;;;;;;5000383;28;20221;-91
2022/07/03 06:20:09;;;;;;;9.70;6.93;;;25.60;99.90;;;;;;5018001;28;20178;-92
2022/07/03 06:22:35;;;;;;;10.83;7.00;;;25.60;99.90;;;;;;5000281;28;20466;-92
2022/07/03 06:25:01;;;;;;;9.10;6.93;;;25.70;99.90;;;;;;5000419;28;20412;-91
2022/07/03 06:27:27;;;;;;;8.77;6.63;;;25.80;99.90;;;;;;5018371;28;20310;-89
2022/07/03 06:29:52;;;;;;;12.10;8.37;;;25.80;99.90;;;;;;5000918;28;20555;-91
2022/07/03 06:32:18;;;;;;;10.47;7.23;;;25.80;99.90;;;;;;5017746;28;20207;-93
2022/07/03 06:34:44;;;;;;;7.57;6.60;;;25.90;99.90;;;;;;5018114;28;20253;-90
2022/07/03 06:37:10;;;;;;;7.93;6.93;;;26.00;99.90;;;;;;5016598;28;20206;-90
2022/07/03 06:39:36;;;;;;;12.57;7.57;;;26.00;99.90;;;;;;5000923;28;20179;-90
2022/07/03 06:42:02;;;;;;;9.20;6.77;;;26.00;99.90;;;;;;5017986;28;20975;-91
2022/07/03 06:44:27;;;;;;;8.70;6.60;;;26.00;99.90;;;;;;5017988;28;20420;-89
2022/07/03 06:46:53;;;;;;;8.70;6.73;;;26.10;99.90;;;;;;5000285;28;20592;-90
2022/07/03 06:49:19;;;;;;;7.30;6.50;;;26.10;99.90;;;;;;5022708;28;20231;-90
2022/07/03 06:51:45;;;;;;;7.70;6.43;;;26.20;99.90;;;;;;5016563;28;20203;-92
2022/07/03 06:54:10;;;;;;;10.60;7.07;;;26.20;99.90;;;;;;5017347;28;20672;-90
2022/07/03 06:56:36;;;;;;;9.17;7.03;;;26.30;99.90;;;;;;5019111;28;20218;-90
2022/07/03 06:59:02;;;;;;;9.40;6.70;;;26.30;99.90;;;;;;5019065;28;20184;-93
2022/07/03 07:01:27;;;;;;;9.03;6.90;;;26.40;99.90;;;;;;5035478;28;20199;-93
2022/07/03 07:03:53;;;;;;;9.57;7.40;;;26.40;99.90;;;;;;5035537;28;20195;-91
2022/07/03 07:06:18;;;;;;;9.70;7.60;;;26.50;99.90;;;;;;5019991;28;20179;-91
2022/07/03 07:08:44;;;;;;;9.63;7.03;;;26.50;99.90;;;;;;5018270;28;20270;-90
2022/07/03 07:11:10;;;;;;;10.87;8.03;;;26.60;99.90;;;;;;5017043;28;20612;-91
2022/07/03 07:13:35;;;;;;;8.03;6.37;;;26.60;99.90;;;;;;5017301;28;20202;-94
2022/07/03 07:16:01;;;;;;;8.50;6.10;;;26.70;99.90;;;;;;5018451;28;20308;-89
2022/07/03 07:18:27;;;;;;;10.20;7.27;;;26.70;99.90;;;;;;5018959;28;20210;-96
2022/07/03 07:20:52;;;;;;;8.63;7.20;;;26.80;99.90;;;;;;5018711;28;20194;-89
2022/07/03 07:23:18;;;;;;;10.07;8.43;;;26.80;99.90;;;;;;5022225;28;20457;-89
2022/07/03 07:25:44;;;;;;;9.20;7.23;;;26.90;99.90;;;;;;5021700;28;20586;-89
2022/07/03 07:28:11;;;;;;;7.70;6.90;;;26.90;99.90;;;;;;5028040;28;20452;-95
2022/07/03 07:30:38;;;;;;;8.17;6.57;;;27.00;99.90;;;;;;5016405;28;20413;-89
2022/07/03 07:33:04;;;;;;;9.10;7.20;;;27.10;99.90;;;;;;5015854;28;20452;-96
2022/07/03 07:35:29;;;;;;;12.10;7.50;;;27.10;99.90;;;;;;5017181;28;20513;-89
2022/07/03 07:37:55;;;;;;;17.53;6.90;;;27.20;99.90;;;;;;5017726;28;20205;-89
2022/07/03 07:40:21;;;;;;;7.47;6.13;;;27.20;99.90;;;;;;5017083;28;20199;-92
2022/07/03 07:42:46;;;;;;;8.47;6.97;;;27.30;99.90;;;;;;5015905;28;20207;-88
2022/07/03 07:45:13;;;;;;;8.90;7.57;;;27.30;99.90;;;;;;5017061;28;20182;-93
2022/07/03 07:47:38;;;;;;;10.20;7.77;;;27.40;99.90;;;;;;5016720;28;20703;-96
2022/07/03 07:50:05;;;;;;;10.10;7.47;;;27.40;99.90;;;;;;5018429;28;20460;-96
2022/07/03 07:52:31;;;;;;;9.40;7.07;;;27.50;99.90;;;;;;5016089;28;20206;-96
2022/07/03 07:54:56;;;;;;;8.03;6.10;;;27.50;99.90;;;;;;4999436;28;20522;-88
2022/07/03 07:57:22;;;;;;;10.40;6.87;;;27.50;99.90;;;;;;4998859;28;20203;-96
2022/07/03 07:59:47;;;;;;;8.67;7.10;;;27.60;99.90;;;;;;4999139;28;20177;-94
2022/07/03 08:07:41;;;;;;;7.50;6.60;;;27.80;99.90;;;;;;5019675;28;20443;-96
2022/07/03 08:10:07;;;;;;;10.87;7.40;;;27.80;99.90;;;;;;5002130;28;20501;-88
2022/07/03 08:12:33;;;;;;;8.70;7.43;;;27.90;99.90;;;;;;5017998;28;20243;-96
2022/07/03 08:14:58;;;;;;;11.13;7.23;;;28.00;99.90;;;;;;5017657;28;20803;-90
2022/07/03 08:17:24;;;;;;;9.27;6.97;;;28.00;99.90;;;;;;5000364;28;20665;-88
2022/07/03 08:19:50;;;;;;;8.70;7.20;;;28.10;99.90;;;;;;4999700;28;20172;-93
2022/07/03 08:22:15;;;;;;;7.00;6.20;;;28.20;99.90;;;;;;5016507;28;20681;-89
2022/07/03 08:24:41;;;;;;;8.90;7.23;;;28.20;99.90;;;;;;4999318;28;20550;-93
2022/07/03 08:27:06;;;;;;;7.13;6.27;;;28.30;99.90;;;;;;5002348;28;20745;-89
2022/07/03 08:29:32;;;;;;;8.23;6.17;;;28.40;99.90;;;;;;5002046;28;20233;-88
2022/07/03 08:31:58;;;;;;;7.33;6.30;;;28.50;99.90;;;;;;5020105;28;20323;-89
2022/07/03 08:34:23;;;;;;;9.10;7.00;;;28.50;99.90;;;;;;5000235;28;20258;-89
2022/07/03 08:36:49;;;;;;;9.57;6.60;;;28.60;99.90;;;;;;5023010;28;20208;-87
2022/07/03 08:39:15;;;;;;;8.20;7.30;;;28.70;99.90;;;;;;5030058;28;20187;-93
2022/07/03 08:41:41;;;;;;;8.80;7.47;;;28.70;99.90;;;;;;4997664;28;20444;-96
2022/07/03 08:44:12;;;;;;;9.33;6.37;;;28.80;99.90;;;;;;5015706;28;20196;-88
2022/07/03 08:46:39;;;;;;;8.10;6.50;;;28.80;99.90;;;;;;5015522;28;20971;-95
2022/07/03 08:49:07;;;;;;;10.03;6.77;;;28.90;99.90;;;;;;5002367;28;20478;-88
2022/07/03 08:51:35;;;;;;;12.23;6.40;;;29.00;99.90;;;;;;5015143;28;20546;-88
2022/07/03 08:54:01;;;;;;;9.27;6.57;;;29.10;99.90;;;;;;5016099;28;20485;-94
2022/07/03 08:56:27;;;;;;;8.33;6.70;;;29.10;99.90;;;;;;5016481;28;20947;-88
2022/07/03 08:58:54;;;;;;;6.77;6.07;;;29.20;99.90;;;;;;5015001;28;20418;-94
2022/07/03 09:01:21;;;;;;;7.83;7.10;;;29.30;99.90;;;;;;5013968;28;20178;-89
2022/07/03 09:03:48;;;;;;;7.97;6.87;;;29.30;99.90;;;;;;5014354;28;20437;-88
2022/07/03 09:06:17;;;;;;;9.33;7.03;;;29.40;99.90;;;;;;5013991;28;20407;-96
2022/07/03 09:08:43;;;;;;;10.27;6.30;;;29.40;99.90;;;;;;5015059;28;20823;-88
2022/07/03 09:11:10;;;;;;;8.57;7.20;;;29.50;99.90;;;;;;5013714;28;20409;-89
2022/07/03 09:13:36;;;;;;;9.90;7.50;;;29.50;99.90;;;;;;5015147;28;20437;-88
2022/07/03 09:16:01;;;;;;;9.53;6.67;;;29.50;99.90;;;;;;5028956;28;20473;-87
2022/07/03 09:18:41;;;;;;;9.33;6.50;;;29.50;99.90;;;;;;5014750;28;20189;-95
2022/07/03 09:21:08;;;;;;;6.33;5.67;;;29.60;99.90;;;;;;5014664;28;20178;-95
2022/07/03 09:23:42;;;;;;;8.13;6.00;;;29.70;99.90;;;;;;5014670;28;20457;-88
2022/07/03 09:26:19;;;;;;;9.03;6.47;;;29.70;99.90;;;;;;5030700;28;20418;-96
2022/07/03 09:28:53;;;;;;;11.40;7.13;;;29.80;99.90;;;;;;5014192;28;20431;-96
2022/07/03 09:31:27;;;;;;;6.83;6.10;;;29.90;99.90;;;;;;5018142;28;20512;-88
2022/07/03 09:34:07;;;;;;;6.83;6.10;;;30.00;99.90;;;;;;5013532;28;20940;-88
2022/07/03 09:36:47;;;;;;;6.40;5.90;;;30.10;99.90;;;;;;5015358;28;20430;-88
2022/07/03 09:39:31;;;;;;;9.97;6.97;;;30.20;99.90;;;;;;5019779;28;20475;-95
2022/07/03 09:42:04;;;;;;;7.03;6.33;;;30.30;99.90;;;;;;5021972;28;20446;-88
2022/07/03 09:44:42;;;;;;;7.90;5.80;;;30.40;99.90;;;;;;5013386;28;20424;-96
2022/07/03 09:47:21;;;;;;;6.13;5.53;;;30.40;99.90;;;;;;5012909;28;20503;-96
2022/07/03 09:49:58;;;;;;;7.17;6.47;;;30.50;99.90;;;;;;5015663;28;20474;-96
2022/07/03 09:52:43;;;;;;;6.77;5.93;;;30.50;99.70;;;;;;5014043;28;20815;-96
2022/07/03 09:55:08;;;;;;;7.37;5.70;;;30.50;98.50;;;;;;5029693;28;20510;-88
2022/07/03 09:57:35;;;;;;;7.83;6.27;;;30.50;99.90;;;;;;5004119;28;20447;-95
2022/07/03 10:00:20;;;;;;;9.27;6.03;;;30.60;99.20;;;;;;4996479;28;20252;-89
2022/07/03 10:03:04;;;;;;;6.80;6.13;;;30.60;99.80;;;;;;4996425;28;20455;-88
2022/07/03 10:05:37;;;;;;;7.07;6.37;;;30.70;99.90;;;;;;4995679;28;20824;-88
2022/07/03 10:08:03;;;;;;;6.10;5.50;;;30.80;99.90;;;;;;5012623;28;20475;-96
2022/07/03 10:10:34;;;;;;;7.50;5.90;;;30.70;98.50;;;;;;5012361;28;20798;-93
2022/07/03 10:13:00;;;;;;;10.33;6.10;;;30.80;99.70;;;;;;4994648;28;20756;-96
2022/07/03 10:15:27;;;;;;;6.80;5.47;;;30.80;99.90;;;;;;4995837;28;20835;-95
2022/07/03 10:17:56;;;;;;;6.23;5.60;;;30.80;99.90;;;;;;4995200;28;20460;-88
2022/07/03 10:20:25;;;;;;;7.53;6.13;;;30.90;99.90;;;;;;4997476;28;20520;-88
2022/07/03 10:22:51;;;;;;;5.63;4.97;;;31.00;99.90;;;;;;5013949;28;20535;-89
2022/07/03 10:25:18;;;;;;;7.20;6.00;;;31.00;99.20;;;;;;4996452;28;20942;-95
2022/07/03 10:27:46;;;;;;;5.93;5.33;;;31.00;99.50;;;;;;4996125;28;20520;-96
2022/07/03 10:30:15;;;;;;;7.00;5.97;;;31.10;99.50;;;;;;4997972;28;20433;-96
2022/07/03 10:32:43;;;;;;;7.67;5.43;;;31.10;99.80;;;;;;4997118;28;20873;-89
2022/07/03 10:35:10;;;;;;;11.30;5.87;;;31.20;99.20;;;;;;4995724;28;20480;-88
2022/07/03 10:37:49;;;;;;;7.63;5.60;;;31.20;98.80;;;;;;4995022;28;20484;-96
2022/07/03 10:46:17;;;;;;;8.73;5.77;;;31.20;97.70;;;;;;5002380;28;20408;-88
2022/07/03 10:48:55;;;;;;;7.40;5.83;;;31.20;98.20;;;;;;5001305;28;20506;-96
2022/07/03 10:51:21;;;;;;;6.30;5.30;;;31.20;97.50;;;;;;5009130;28;20405;-96
2022/07/03 10:53:47;;;;;;;6.07;5.33;;;31.20;98.10;;;;;;5001129;28;20444;-88
2022/07/03 10:56:14;;;;;;;5.13;4.60;;;31.20;98.20;;;;;;5002450;28;20468;-89
2022/07/03 10:58:56;;;;;;;6.33;5.10;;;31.30;97.80;;;;;;5001200;28;20433;-88
2022/07/03 11:01:27;;;;;;;5.60;4.90;;;31.30;97.20;;;;;;4999372;28;20473;-88
2022/07/03 11:04:01;;;;;;;7.60;6.10;;;31.30;97.10;;;;;;4999269;28;20428;-88
2022/07/03 11:06:44;;;;;;;6.03;5.43;;;31.30;96.30;;;;;;4998873;28;20516;-89
2022/07/03 11:09:12;;;;;;;6.13;5.33;;;31.30;97.60;;;;;;5009416;28;20521;-90
2022/07/03 11:11:54;;;;;;;5.37;4.87;;;31.30;97.60;;;;;;5014417;28;20481;-96
2022/07/03 11:14:22;;;;;;;8.40;5.47;;;31.40;97.30;;;;;;5016571;28;20458;-96
2022/07/03 11:16:48;;;;;;;8.33;5.13;;;31.40;97.20;;;;;;4997195;28;20525;-96
2022/07/03 11:19:25;;;;;;;6.90;4.93;;;31.40;97.50;;;;;;4997768;28;20449;-94
2022/07/03 11:22:00;;;;;;;5.80;3.90;;;31.50;97.20;;;;;;4996598;28;20240;-88
2022/07/03 11:24:37;;;;;;;5.37;4.77;;;31.50;96.10;;;;;;4997863;28;20963;-87
2022/07/03 11:27:35;;;;;;;6.37;4.70;;;31.50;95.80;;;;;;4996569;28;20512;-89
2022/07/03 11:30:01;;;;;;;7.47;4.90;;;31.50;95.10;;;;;;4997058;28;20428;-95
2022/07/03 11:32:47;;;;;;;5.70;4.63;;;31.50;95.90;;;;;;4997405;28;20460;-89
2022/07/03 11:35:48;;;;;;;5.00;4.50;;;31.50;95.20;;;;;;4996145;28;20235;-88
2022/07/03 11:38:32;;;;;;;5.90;4.60;;;31.50;94.90;;;;;;4997226;28;20463;-87
2022/07/03 11:41:00;;;;;;;5.50;5.00;;;31.60;95.20;;;;;;4997480;28;20436;-89
2022/07/03 11:43:26;;;;;;;5.13;4.43;;;31.70;95.00;;;;;;4996399;28;20553;-96
2022/07/03 11:45:51;;;;;;;5.13;4.63;;;31.70;95.00;;;;;;4996059;28;20445;-88
2022/07/03 11:48:20;;;;;;;5.60;5.10;;;31.70;95.30;;;;;;4996738;28;20287;-88
2022/07/03 11:50:47;;;;;;;6.37;4.87;;;31.80;95.40;;;;;;4996797;28;20539;-96
2022/07/03 11:53:20;;;;;;;7.40;4.30;;;31.80;94.70;;;;;;4980705;28;20456;-88
2022/07/03 11:55:49;;;;;;;4.50;3.97;;;31.80;94.10;;;;;;4997117;28;20989;-88
2022/07/03 11:58:15;;;;;;;6.00;4.10;;;31.70;93.80;;;;;;4999784;28;20453;-88
2022/07/03 12:00:41;;;;;;;6.70;4.40;;;31.80;93.70;;;;;;4981410;28;20919;-96
2022/07/03 12:03:07;;;;;;;4.97;4.50;;;31.80;93.50;;;;;;4981462;28;20453;-96
2022/07/03 12:05:33;;;;;;;6.20;4.70;;;31.80;93.30;;;;;;4981463;28;20180;-96
2022/07/03 12:08:05;;;;;;;4.27;3.87;;;31.90;93.40;;;;;;5001041;28;20559;-96
2022/07/03 12:10:39;;;;;;;6.33;4.20;;;31.90;93.20;;;;;;4982718;28;20618;-95
2022/07/03 12:13:17;;;;;;;4.27;3.93;;;31.90;93.20;;;;;;4979682;28;20549;-96
2022/07/03 12:15:43;;;;;;;4.83;4.37;;;32.00;93.10;;;;;;4979584;28;20500;-88
2022/07/03 12:18:08;;;;;;;4.73;3.90;;;32.00;93.00;;;;;;4980447;28;20508;-96
2022/07/03 12:20:34;;;;;;;4.20;3.80;;;32.00;92.20;;;;;;5000868;28;20199;-93
2022/07/03 12:23:00;;;;;;;4.27;3.93;;;32.00;92.70;;;;;;4996668;28;20211;-96
2022/07/03 12:25:29;;;;;;;4.87;3.93;;;32.10;92.60;;;;;;4980989;28;20183;-88
2022/07/03 12:27:55;;;;;;;5.20;4.70;;;32.10;92.60;;;;;;4979911;28;20208;-96
2022/07/03 12:30:25;;;;;;;4.70;4.00;;;32.10;92.20;;;;;;4979755;28;20425;-91
2022/07/03 12:32:52;;;;;;;8.80;4.10;;;32.10;91.40;;;;;;4996672;28;20561;-93
2022/07/03 12:35:22;;;;;;;5.40;3.90;;;32.20;91.70;;;;;;4979801;28;20489;-96
2022/07/03 12:37:48;;;;;;;4.83;4.33;;;32.30;91.70;;;;;;4980951;28;20441;-89
2022/07/03 12:40:14;;;;;;;5.33;4.50;;;32.30;91.70;;;;;;4998603;28;20425;-90
2022/07/03 12:42:47;;;;;;;7.83;4.27;;;32.30;91.10;;;;;;4981605;28;20208;-88
2022/07/03 12:45:17;;;;;;;7.60;4.20;;;32.40;91.60;;;;;;5000043;28;20418;-88
2022/07/03 12:47:44;;;;;;;5.70;4.80;;;32.30;91.60;;;;;;4980996;28;20464;-96
2022/07/03 12:50:10;;;;;;;6.60;4.00;;;32.40;91.90;;;;;;4984512;28;20552;-88
2022/07/03 12:52:51;;;;;;;5.10;4.00;;;32.40;91.60;;;;;;5007888;28;20441;-88
2022/07/03 12:55:30;;;;;;;6.13;4.60;;;32.50;92.00;;;;;;4994439;28;20465;-88
2022/07/03 13:01:02;;;;;;;6.83;4.20;;;32.50;91.80;;;;;;4995878;28;20493;-93
2022/07/03 13:03:29;;;;;;;5.10;4.60;;;32.50;91.90;;;;;;4995810;28;20422;-87
2022/07/03 13:05:55;;;;;;;5.37;4.87;;;32.50;91.60;;;;;;4985558;28;20410;-90
2022/07/03 13:08:21;;;;;;;5.00;4.07;;;32.50;91.50;;;;;;4995195;28;20484;-88
2022/07/03 13:10:56;;;;;;;5.13;4.63;;;32.50;91.30;;;;;;4995276;28;20221;-89
2022/07/03 13:13:22;;;;;;;4.63;3.67;;;32.50;91.30;;;;;;4978024;28;20199;-88
2022/07/03 13:15:47;;;;;;;4.10;3.33;;;32.60;91.20;;;;;;4995036;28;20469;-88